Time;durP1;ratioP1;P1;durP2;ratioP2;P2;SDS_P1;SDS_P2;PMS_P1;PMS_P2;Temp;Humidity;BMP_temperature;BMP_pressure;BME280_temperature;BME280_humidity;BME280_pressure;Samples;Min_cycle;Max_cycle;Signal;HPM_P1;HPM_P2
2022/05/09 00:01:23;;;;;;;5.90;2.70;;;;;;;10.24;70.55;101952.09;4985617;28;20508;-70
2022/05/09 00:03:49;;;;;;;4.53;2.40;;;;;;;10.19;70.58;101940.97;4992420;28;20100;-70
2022/05/09 00:06:14;;;;;;;4.97;2.70;;;;;;;10.21;70.83;101947.00;4966840;28;20014;-70
2022/05/09 00:08:42;;;;;;;7.90;2.60;;;;;;;10.34;70.22;101941.75;4954105;28;20021;-70
2022/05/09 00:11:08;;;;;;;4.03;2.58;;;;;;;10.44;69.80;101944.63;4959370;28;20489;-70
2022/05/09 00:13:33;;;;;;;3.15;2.58;;;;;;;10.33;69.49;101940.03;4974905;28;20777;-69
2022/05/09 00:15:59;;;;;;;3.88;2.25;;;;;;;10.43;69.30;101945.56;4950603;28;20239;-70
2022/05/09 00:18:24;;;;;;;3.58;2.50;;;;;;;10.46;69.17;101937.41;4978179;28;20021;-70
2022/05/09 00:20:49;;;;;;;3.28;2.50;;;;;;;10.35;69.06;101943.47;4979406;28;20961;-70
2022/05/09 00:23:15;;;;;;;3.00;2.38;;;;;;;10.44;68.66;101941.97;4994297;28;20139;-70
2022/05/09 00:25:40;;;;;;;3.95;2.55;;;;;;;10.19;69.39;101938.31;4973972;28;20040;-70
2022/05/09 00:28:06;;;;;;;2.47;2.25;;;;;;;10.10;70.04;101933.69;4957806;28;20884;-70
2022/05/09 00:30:32;;;;;;;2.80;2.40;;;;;;;10.10;70.23;101933.69;4954745;28;20236;-70
2022/05/09 00:32:57;;;;;;;3.78;2.47;;;;;;;10.23;69.85;101929.22;4972455;28;20029;-70
2022/05/09 00:35:23;;;;;;;4.35;2.60;;;;;;;10.20;69.23;101933.91;4975945;28;20050;-70
2022/05/09 00:37:48;;;;;;;3.42;2.55;;;;;;;10.05;69.72;101926.03;4987792;28;20577;-69
2022/05/09 00:40:14;;;;;;;2.53;2.33;;;;;;;10.09;69.77;101926.69;4980605;28;20196;-70
2022/05/09 00:42:48;;;;;;;4.22;2.40;;;;;;;10.01;69.65;101926.34;5000162;28;20970;-70
2022/05/09 00:45:13;;;;;;;3.17;2.20;;;;;;;10.03;69.71;101932.41;4979786;28;20064;-70
2022/05/09 00:47:39;;;;;;;2.53;2.25;;;;;;;9.86;70.22;101926.44;4980816;28;20132;-70
2022/05/09 00:50:05;;;;;;;2.58;2.35;;;;;;;10.05;69.69;101926.03;5012797;28;20450;-70
2022/05/09 00:52:40;;;;;;;6.72;2.50;;;;;;;9.78;70.59;101920.81;4994695;28;20017;-70
2022/05/09 00:55:18;;;;;;;5.20;2.45;;;;;;;9.67;70.97;101923.31;4981958;28;20041;-69
2022/05/09 00:57:54;;;;;;;4.70;2.25;;;;;;;9.55;71.46;101914.44;4958124;28;20961;-70
2022/05/09 01:00:21;;;;;;;2.40;2.03;;;;;;;9.57;71.73;101926.56;4959846;28;20342;-70
2022/05/09 01:02:49;;;;;;;3.95;2.00;;;;;;;9.54;71.65;101913.56;4956773;28;20024;-70
2022/05/09 01:05:15;;;;;;;2.17;2.00;;;;;;;9.55;71.56;101917.91;4956711;28;20026;-69
2022/05/09 01:07:41;;;;;;;2.65;2.22;;;;;;;9.77;70.47;101922.63;4963175;28;20099;-70
2022/05/09 01:10:09;;;;;;;5.13;2.33;;;;;;;9.86;70.38;101915.88;4952380;28;20948;-70
2022/05/09 01:12:35;;;;;;;2.80;2.20;;;;;;;9.79;70.04;101918.06;4976175;28;20022;-70
2022/05/09 01:15:03;;;;;;;3.70;2.30;;;;;;;9.70;70.63;101915.19;4963039;28;20050;-70
2022/05/09 01:17:29;;;;;;;2.75;2.42;;;;;;;9.63;71.07;101915.59;4944161;28;20041;-70
2022/05/09 01:19:55;;;;;;;3.58;2.10;;;;;;;9.80;69.89;101916.28;4959946;28;20189;-70
2022/05/09 01:22:31;;;;;;;4.32;2.30;;;;;;;9.69;70.79;101913.50;4959916;28;20920;-69
2022/05/09 01:25:03;;;;;;;3.13;2.38;;;;;;;9.71;70.58;101911.59;4959809;28;20156;-69
2022/05/09 01:27:29;;;;;;;2.90;2.50;;;;;;;9.60;70.91;101904.38;4944359;28;20030;-70
2022/05/09 01:30:04;;;;;;;3.08;2.30;;;;;;;9.38;71.62;101915.53;4960913;28;20010;-70
2022/05/09 01:32:38;;;;;;;3.20;2.40;;;;;;;9.28;72.25;101910.84;4941447;28;20010;-70
2022/05/09 01:35:05;;;;;;;;;;;;;;;9.49;71.22;101904.25;4974785;28;20034;-70
2022/05/09 01:37:31;;;;;;;5.70;2.25;;;;;;;9.44;71.32;101905.38;4984719;28;20358;-70
2022/05/09 01:39:56;;;;;;;4.22;2.30;;;;;;;9.28;71.78;101907.34;4945324;28;20033;-70
2022/05/09 01:42:22;;;;;;;4.10;2.40;;;;;;;9.25;72.31;101897.84;4975464;28;20025;-70
2022/05/09 01:44:47;;;;;;;2.70;2.22;;;;;;;9.53;71.17;101909.25;4983123;28;20112;-70
2022/05/09 01:49:56;;;;;;;2.40;2.17;;;;;;;9.51;70.83;101905.00;4975474;28;20355;-69
2022/05/09 01:52:22;;;;;;;2.10;1.90;;;;;;;9.31;71.17;101898.38;4994597;28;20001;-69
2022/05/09 01:54:47;;;;;;;4.43;2.40;;;;;;;9.36;71.56;101905.03;4979195;28;20069;-69
2022/05/09 01:57:13;;;;;;;3.22;2.35;;;;;;;9.31;71.43;101909.78;4977015;28;20029;-70
2022/05/09 01:59:39;;;;;;;3.67;2.33;;;;;;;9.27;71.90;101914.41;4979143;28;20034;-69
2022/05/09 02:02:10;;;;;;;3.63;2.33;;;;;;;9.34;71.27;101906.13;4985783;28;20014;-70
2022/05/09 02:04:38;;;;;;;3.85;2.22;;;;;;;9.41;70.88;101910.88;4982403;28;20026;-69
2022/05/09 02:07:04;;;;;;;2.50;2.22;;;;;;;9.23;71.27;101912.09;4991857;28;20010;-70
2022/05/09 02:09:29;;;;;;;12.00;2.78;;;;;;;9.11;71.84;101914.56;4966825;28;20014;-69
2022/05/09 02:11:55;;;;;;;3.13;2.47;;;;;;;9.07;72.38;101913.06;4982697;28;20018;-69
2022/05/09 02:14:20;;;;;;;3.55;2.30;;;;;;;9.25;72.00;101916.31;4993665;28;20037;-70
2022/05/09 02:16:45;;;;;;;3.88;2.40;;;;;;;9.11;72.35;101914.56;5023355;28;20032;-69
2022/05/09 02:19:11;;;;;;;5.88;2.50;;;;;;;9.00;72.66;101914.41;5000730;28;20022;-69
2022/05/09 02:21:36;;;;;;;4.60;2.50;;;;;;;9.13;72.65;101914.47;4969703;28;21022;-70
2022/05/09 02:24:02;;;;;;;4.78;2.40;;;;;;;9.01;72.65;101909.97;4982636;28;20022;-69
2022/05/09 02:26:27;;;;;;;3.33;2.65;;;;;;;8.93;72.84;101911.31;4978424;28;20041;-70
2022/05/09 02:28:53;;;;;;;3.38;2.53;;;;;;;8.94;72.84;101914.81;4988961;28;20088;-70
2022/05/09 02:31:20;;;;;;;3.22;2.75;;;;;;;8.91;73.38;101907.94;4983764;28;20884;-70
2022/05/09 02:33:46;;;;;;;5.38;2.80;;;;;;;8.87;73.68;101916.97;4971708;28;20002;-70
2022/05/09 02:36:11;;;;;;;3.20;2.40;;;;;;;8.87;73.26;101916.97;4984083;28;20036;-69
2022/05/09 02:38:38;;;;;;;4.30;2.70;;;;;;;9.00;73.04;101905.66;4991369;28;20209;-70
2022/05/09 02:41:04;;;;;;;3.10;2.72;;;;;;;8.90;73.05;101906.22;4971980;28;20030;-70
2022/05/09 02:43:29;;;;;;;3.78;3.00;;;;;;;9.00;73.24;101900.38;5022795;28;20262;-71
2022/05/09 02:46:01;;;;;;;3.95;2.50;;;;;;;8.87;73.45;101903.78;4999430;28;20150;-70
2022/05/09 02:48:27;;;;;;;4.90;2.67;;;;;;;8.89;73.83;101899.25;4975502;28;20010;-70
2022/05/09 02:50:52;;;;;;;5.97;2.83;;;;;;;8.82;73.55;101900.56;4971643;28;20024;-70
2022/05/09 02:53:17;;;;;;;5.40;2.80;;;;;;;8.70;74.37;101899.56;4958772;28;20014;-70
2022/05/09 02:55:43;;;;;;;5.80;2.45;;;;;;;8.74;74.34;101895.78;4976712;28;20579;-70
2022/05/09 02:58:08;;;;;;;3.70;2.72;;;;;;;8.74;74.55;101900.22;4976038;28;20532;-70
2022/05/09 03:00:34;;;;;;;3.78;2.97;;;;;;;8.73;74.29;101893.25;4950436;28;20926;-69
2022/05/09 03:05:44;;;;;;;3.00;2.70;;;;;;;8.77;74.76;101900.88;4978979;28;20640;-70
2022/05/09 03:08:10;;;;;;;2.60;2.40;;;;;;;8.84;74.39;101905.75;4961360;28;20014;-70
2022/05/09 03:10:36;;;;;;;2.63;2.40;;;;;;;8.70;74.86;101894.28;4958765;28;20021;-70
2022/05/09 03:13:03;;;;;;;3.33;3.03;;;;;;;8.66;75.10;101891.91;4972862;28;20616;-70
2022/05/09 03:15:29;;;;;;;3.13;2.83;;;;;;;8.70;75.15;101898.69;4964708;28;20785;-69
2022/05/09 03:17:54;;;;;;;3.00;2.70;;;;;;;8.73;74.89;101898.53;4971118;28;20080;-70
2022/05/09 03:20:19;;;;;;;5.25;2.80;;;;;;;8.66;75.25;101892.78;4977902;28;20986;-70
2022/05/09 03:22:45;;;;;;;8.70;2.70;;;;;;;8.69;75.35;101903.13;4961518;28;20392;-70
2022/05/09 03:25:10;;;;;;;5.32;2.78;;;;;;;8.64;75.76;101896.47;4960202;28;20165;-69
2022/05/09 03:27:35;;;;;;;2.65;2.45;;;;;;;8.58;75.43;101895.88;4961333;28;20191;-69
2022/05/09 03:30:01;;;;;;;2.90;2.70;;;;;;;8.56;75.58;101894.31;4977891;28;20163;-70
2022/05/09 03:32:26;;;;;;;3.30;2.70;;;;;;;8.48;75.76;101892.13;4961272;28;20044;-70
2022/05/09 03:34:52;;;;;;;4.57;3.17;;;;;;;8.50;75.51;101899.94;4981253;28;20122;-70
2022/05/09 03:37:17;;;;;;;2.90;2.60;;;;;;;8.46;76.00;101891.38;4967251;28;20018;-70
2022/05/09 03:39:42;;;;;;;4.55;2.95;;;;;;;8.45;76.19;101902.00;4991985;28;20049;-69
2022/05/09 03:42:08;;;;;;;3.20;2.72;;;;;;;8.41;76.06;101899.53;4958455;28;20025;-70
2022/05/09 03:44:33;;;;;;;3.10;2.67;;;;;;;8.40;75.92;101897.84;4951711;28;20023;-70
2022/05/09 03:46:59;;;;;;;3.22;2.70;;;;;;;8.36;76.23;101899.00;4947177;28;20022;-70
2022/05/09 03:49:24;;;;;;;5.78;2.53;;;;;;;8.39;75.94;101900.56;4937063;28;20011;-71
2022/05/09 03:51:50;;;;;;;9.20;2.97;;;;;;;8.35;76.02;101899.09;4937039;28;20090;-71
2022/05/09 03:54:15;;;;;;;4.10;2.78;;;;;;;8.30;75.88;101894.06;4967841;28;20002;-70
2022/05/09 03:56:41;;;;;;;3.25;2.80;;;;;;;8.24;76.66;101897.09;4966859;28;20342;-70
2022/05/09 03:59:08;;;;;;;3.30;2.88;;;;;;;8.25;76.65;101897.00;4977925;28;20461;-72
2022/05/09 04:01:34;;;;;;;4.45;2.75;;;;;;;8.21;76.54;101895.47;4998057;28;20017;-72
2022/05/09 04:04:00;;;;;;;4.90;2.90;;;;;;;8.15;76.82;101890.59;5002452;28;20014;-73
2022/05/09 04:06:26;;;;;;;3.08;2.70;;;;;;;8.10;76.56;101891.81;4980682;28;20233;-71
2022/05/09 04:08:52;;;;;;;3.42;2.65;;;;;;;8.07;76.82;101890.19;4975208;28;20026;-71
2022/05/09 04:11:17;;;;;;;4.32;2.58;;;;;;;8.10;76.92;101890.00;4978337;28;20018;-71
2022/05/09 04:13:43;;;;;;;3.05;2.80;;;;;;;8.15;77.24;101885.31;4996481;28;20062;-72
2022/05/09 04:18:55;;;;;;;3.20;2.63;;;;;;;8.21;77.02;101887.56;4987352;28;20198;-71
2022/05/09 04:21:21;;;;;;;3.50;2.85;;;;;;;8.28;76.81;101892.47;4986657;27;20109;-71
2022/05/09 04:23:46;;;;;;;3.33;3.00;;;;;;;8.16;77.28;101889.63;5017579;27;20021;-72
2022/05/09 04:26:13;;;;;;;3.25;2.80;;;;;;;8.24;77.27;101891.81;5017062;27;20729;-72
2022/05/09 04:28:39;;;;;;;5.72;3.17;;;;;;;8.25;77.16;101893.53;4987432;27;20069;-72
2022/05/09 04:31:04;;;;;;;5.00;2.72;;;;;;;8.32;77.06;101899.25;4987261;27;20009;-72
2022/05/09 04:33:30;;;;;;;3.47;3.17;;;;;;;8.32;76.74;101894.84;4986197;28;20006;-71
2022/05/09 04:35:57;;;;;;;4.32;2.88;;;;;;;8.34;76.89;101898.22;4977245;28;20280;-71
2022/05/09 04:38:24;;;;;;;2.85;2.65;;;;;;;8.37;76.99;101891.91;4986717;28;20695;-71
2022/05/09 04:40:51;;;;;;;4.18;3.20;;;;;;;8.39;76.94;101900.56;4946743;28;20026;-71
2022/05/09 04:43:20;;;;;;;6.20;2.90;;;;;;;8.45;77.01;101910.78;4941149;28;20248;-71
2022/05/09 04:45:48;;;;;;;3.15;2.90;;;;;;;8.48;77.02;101913.22;4959121;28;20098;-72
2022/05/09 04:48:14;;;;;;;4.05;2.92;;;;;;;8.54;76.77;101918.13;4966803;28;20509;-71
2022/05/09 04:50:40;;;;;;;5.53;2.83;;;;;;;8.58;76.73;101909.06;4978417;28;20121;-71
2022/05/09 04:53:05;;;;;;;4.13;3.05;;;;;;;8.60;76.94;101914.25;4966579;28;20013;-71
2022/05/09 04:55:31;;;;;;;3.78;3.10;;;;;;;8.68;76.57;101908.53;4981297;28;20018;-71
2022/05/09 04:57:56;;;;;;;3.45;3.13;;;;;;;8.73;76.64;101906.44;4980695;28;20015;-72
2022/05/09 05:00:24;;;;;;;5.32;2.83;;;;;;;8.79;76.48;101908.69;4967984;28;20014;-71
2022/05/09 05:02:50;;;;;;;5.00;2.90;;;;;;;8.84;76.42;101908.41;4984452;28;20738;-71
2022/05/09 05:05:15;;;;;;;2.95;2.75;;;;;;;8.93;76.20;101911.31;4981893;28;20025;-72
2022/05/09 05:07:42;;;;;;;3.55;3.20;;;;;;;8.96;76.25;101918.19;4963223;28;20018;-72
2022/05/09 05:10:08;;;;;;;4.20;2.92;;;;;;;9.03;76.21;101908.09;4931653;28;20030;-72
2022/05/09 05:12:33;;;;;;;3.30;2.90;;;;;;;9.05;75.96;101916.75;4954809;28;20012;-73
2022/05/09 05:15:00;;;;;;;3.83;2.83;;;;;;;9.07;76.37;101912.22;4971172;28;20077;-72
2022/05/09 05:17:25;;;;;;;3.88;2.90;;;;;;;9.20;76.20;101913.13;4950784;28;20368;-73
2022/05/09 05:19:51;;;;;;;3.10;2.80;;;;;;;9.27;75.94;101908.31;4964643;28;20022;-72
2022/05/09 05:22:16;;;;;;;4.97;3.03;;;;;;;9.36;75.97;101907.69;4987104;28;20025;-72
2022/05/09 05:24:47;;;;;;;3.00;2.80;;;;;;;9.51;75.71;101916.41;4987720;28;20114;-72
2022/05/09 05:27:12;;;;;;;3.13;2.72;;;;;;;9.63;75.91;101901.53;4995615;28;20383;-72
2022/05/09 05:29:38;;;;;;;3.10;2.88;;;;;;;9.79;75.46;101904.00;4998301;28;20129;-72
2022/05/09 05:32:14;;;;;;;6.90;3.03;;;;;;;9.90;74.90;101905.91;4984897;28;20018;-71
2022/05/09 05:34:40;;;;;;;2.97;2.72;;;;;;;10.02;74.08;101904.25;4964332;28;20848;-72
2022/05/09 05:37:05;;;;;;;3.10;2.80;;;;;;;10.13;72.79;101909.66;4984878;28;20018;-73
2022/05/09 05:39:34;;;;;;;3.28;2.83;;;;;;;10.28;72.28;101911.25;4983163;28;20744;-72
2022/05/09 05:41:59;;;;;;;4.82;2.97;;;;;;;10.40;71.88;101908.72;4973288;28;20551;-72
2022/05/09 05:44:24;;;;;;;7.80;2.90;;;;;;;10.51;71.87;101910.63;5015060;28;20036;-71
2022/05/09 05:46:50;;;;;;;3.75;2.78;;;;;;;10.63;71.26;101918.56;5001321;28;20720;-72
2022/05/09 05:49:15;;;;;;;3.30;3.00;;;;;;;10.70;70.71;101916.31;4990862;28;20087;-71
2022/05/09 05:51:41;;;;;;;3.03;2.65;;;;;;;10.82;70.17;101920.72;4991772;28;20021;-72
2022/05/09 05:54:06;;;;;;;5.72;2.63;;;;;;;10.97;70.43;101917.94;5001321;28;20047;-72
2022/05/09 05:56:33;;;;;;;5.47;2.70;;;;;;;11.08;69.91;101925.13;4980493;28;20032;-72
2022/05/09 05:58:59;;;;;;;4.38;2.70;;;;;;;11.12;69.63;101921.28;4988882;28;20576;-72
2022/05/09 06:01:24;;;;;;;4.43;2.53;;;;;;;11.27;69.10;101919.34;4978837;28;20895;-72
2022/05/09 06:03:50;;;;;;;5.30;2.60;;;;;;;11.45;68.22;101923.28;4996800;28;20285;-72
2022/05/09 06:06:15;;;;;;;3.83;2.42;;;;;;;11.56;68.14;101922.47;4962499;28;20809;-72
2022/05/09 06:08:43;;;;;;;3.38;2.35;;;;;;;11.63;68.61;101926.38;4974508;28;20602;-72
2022/05/09 06:11:09;;;;;;;5.75;3.05;;;;;;;11.75;68.03;101918.47;4985748;28;20130;-72
2022/05/09 06:13:34;;;;;;;10.07;2.70;;;;;;;11.84;67.49;101931.00;4978422;28;20488;-72
2022/05/09 06:16:00;;;;;;;6.28;2.92;;;;;;;11.93;66.58;101932.97;4976544;28;20017;-71
2022/05/09 06:18:25;;;;;;;4.85;2.80;;;;;;;12.01;66.27;101925.31;4994152;28;20006;-72
2022/05/09 06:20:51;;;;;;;5.63;3.00;;;;;;;12.14;65.87;101929.66;4988279;28;20263;-72
2022/05/09 06:23:17;;;;;;;5.30;2.40;;;;;;;12.29;65.36;101931.13;4972069;28;20009;-72
2022/05/09 06:25:46;;;;;;;4.35;2.95;;;;;;;12.35;64.24;101928.03;4986294;28;20021;-72
2022/05/09 06:28:11;;;;;;;3.08;2.72;;;;;;;12.42;64.04;101938.16;4962159;28;20241;-71
2022/05/09 06:30:37;;;;;;;4.55;2.70;;;;;;;12.60;64.26;101930.56;4975982;28;20337;-71
2022/05/09 06:33:02;;;;;;;4.95;3.00;;;;;;;12.68;63.47;101934.31;4962541;28;20025;-71
2022/05/09 06:35:28;;;;;;;3.85;2.80;;;;;;;12.77;63.34;101935.38;4980409;28;20136;-71
2022/05/09 06:38:01;;;;;;;3.67;2.55;;;;;;;12.88;63.16;101929.22;4980975;28;20002;-73
2022/05/09 06:40:28;;;;;;;5.25;3.10;;;;;;;12.95;62.90;101941.03;4960404;28;20030;-72
2022/05/09 06:42:54;;;;;;;9.80;2.90;;;;;;;13.06;62.10;101935.72;4963192;28;20167;-72
2022/05/09 06:45:20;;;;;;;5.20;3.05;;;;;;;13.15;61.51;101938.59;4968326;28;20212;-72
2022/05/09 06:47:51;;;;;;;7.75;3.10;;;;;;;13.21;61.86;101935.44;4978837;28;20873;-72
2022/05/09 06:50:17;;;;;;;5.25;2.85;;;;;;;13.36;61.77;101934.22;4974449;28;20574;-72
2022/05/09 06:52:43;;;;;;;3.65;2.67;;;;;;;13.46;61.67;101930.81;4942825;28;20010;-71
2022/05/09 06:55:09;;;;;;;3.83;2.35;;;;;;;13.49;61.37;101927.88;4960078;28;20033;-72
2022/05/09 06:57:38;;;;;;;4.47;2.60;;;;;;;13.54;60.86;101931.03;4942918;28;20117;-72
2022/05/09 07:00:06;;;;;;;4.28;2.50;;;;;;;13.65;60.33;101923.00;4958573;28;20022;-72
2022/05/09 07:02:31;;;;;;;3.63;2.20;;;;;;;13.77;60.77;101925.59;4940121;28;20018;-72
2022/05/09 07:04:57;;;;;;;4.05;2.88;;;;;;;13.87;61.25;101915.88;4924520;28;20003;-72
2022/05/09 07:07:22;;;;;;;6.45;2.95;;;;;;;14.01;61.28;101920.84;4958152;28;20017;-72
2022/05/09 07:09:48;;;;;;;5.20;2.92;;;;;;;14.15;60.65;101924.16;4994255;28;20022;-71
2022/05/09 07:12:13;;;;;;;4.25;2.90;;;;;;;14.21;60.01;101923.63;4958966;28;20417;-72
2022/05/09 07:14:38;;;;;;;5.60;3.00;;;;;;;14.33;60.16;101930.56;4983993;28;20323;-71
2022/05/09 07:17:05;;;;;;;6.82;2.80;;;;;;;14.37;59.19;101921.34;4995432;28;20089;-71
2022/05/09 07:19:31;;;;;;;5.63;3.15;;;;;;;14.45;60.92;101919.84;4962067;28;20036;-72
2022/05/09 07:21:57;;;;;;;9.57;3.40;;;;;;;14.48;59.10;101915.09;4962576;28;20014;-73
2022/05/09 07:24:22;;;;;;;4.20;2.95;;;;;;;14.63;59.59;101917.44;4996599;28;20571;-72
2022/05/09 07:26:47;;;;;;;4.38;2.85;;;;;;;14.81;58.93;101917.63;4956613;28;20242;-71
2022/05/09 07:29:13;;;;;;;5.10;2.83;;;;;;;14.87;58.58;101914.41;4941750;28;20025;-72
2022/05/09 07:31:38;;;;;;;5.10;3.85;;;;;;;15.00;58.38;101919.50;4960972;28;20041;-72
2022/05/09 07:34:04;;;;;;;4.95;3.30;;;;;;;15.04;57.26;101911.06;4959833;28;20078;-72
2022/05/09 07:36:30;;;;;;;4.82;3.30;;;;;;;15.13;57.12;101914.75;4992521;28;20483;-72
2022/05/09 07:38:55;;;;;;;6.22;3.38;;;;;;;15.20;57.38;101904.38;4954650;28;20034;-72
2022/05/09 07:41:21;;;;;;;3.97;3.08;;;;;;;15.33;56.28;101904.94;4967012;28;20029;-72
2022/05/09 07:43:46;;;;;;;5.45;3.10;;;;;;;15.41;56.49;101902.44;4976253;28;20026;-72
2022/05/09 07:46:11;;;;;;;5.70;2.97;;;;;;;15.52;55.89;101904.09;4981689;28;20180;-72
2022/05/09 07:48:38;;;;;;;6.07;3.13;;;;;;;15.59;56.74;101905.22;4982889;28;20033;-72
2022/05/09 07:51:04;;;;;;;4.13;3.00;;;;;;;15.79;55.34;101903.41;4996675;28;20917;-71
2022/05/09 07:53:31;;;;;;;10.50;2.97;;;;;;;15.74;56.64;101897.63;4997993;28;20032;-72
2022/05/09 07:55:56;;;;;;;4.50;2.90;;;;;;;15.84;56.18;101896.81;4982464;28;20817;-72
2022/05/09 07:58:22;;;;;;;7.38;3.30;;;;;;;15.97;56.47;101894.66;4982540;28;20082;-72
2022/05/09 08:00:48;;;;;;;3.53;3.22;;;;;;;16.20;56.35;101902.34;4961410;28;20835;-71
2022/05/09 08:03:16;;;;;;;3.85;3.03;;;;;;;16.27;55.19;101906.97;4962521;28;20129;-72
2022/05/09 08:05:42;;;;;;;4.28;3.05;;;;;;;16.38;55.69;101905.91;4999404;28;20052;-72
2022/05/09 08:08:07;;;;;;;3.20;2.90;;;;;;;16.54;54.55;101907.13;5009665;28;20014;-72
2022/05/09 08:10:33;;;;;;;6.40;3.10;;;;;;;16.56;54.52;101910.50;4999379;28;20074;-72
2022/05/09 08:12:58;;;;;;;4.82;2.80;;;;;;;16.56;56.59;101897.16;4999882;28;20016;-72
2022/05/09 08:15:24;;;;;;;4.63;3.20;;;;;;;16.69;55.13;101902.97;4987384;28;20669;-71
2022/05/09 08:17:50;;;;;;;3.20;2.50;;;;;;;16.94;54.43;101905.97;4997191;28;20116;-72
2022/05/09 08:20:16;;;;;;;4.38;3.13;;;;;;;17.01;53.83;101901.69;4979865;28;20017;-72
2022/05/09 08:22:41;;;;;;;3.53;2.95;;;;;;;17.12;54.43;101890.78;4993501;28;20397;-72
2022/05/09 08:25:07;;;;;;;7.35;2.85;;;;;;;17.22;53.56;101888.03;4982382;28;20786;-72
2022/05/09 08:27:33;;;;;;;2.97;2.67;;;;;;;17.34;53.75;101896.66;4988682;28;20492;-72
2022/05/09 08:29:59;;;;;;;3.30;2.65;;;;;;;17.52;53.23;101900.16;4981325;28;20022;-72
2022/05/09 08:32:27;;;;;;;8.63;2.90;;;;;;;17.67;52.54;101891.63;5019631;28;20016;-72
2022/05/09 08:34:53;;;;;;;5.28;2.67;;;;;;;17.74;53.04;101891.81;4982849;28;20873;-73
2022/05/09 08:37:19;;;;;;;3.35;2.88;;;;;;;17.89;54.92;101900.13;4982296;28;20005;-72
2022/05/09 08:39:44;;;;;;;4.45;2.65;;;;;;;18.01;53.15;101898.91;4981917;28;20083;-72
2022/05/09 08:42:12;;;;;;;5.13;3.72;;;;;;;18.18;55.11;101889.13;4981501;28;20002;-73
2022/05/09 08:44:52;;;;;;;3.20;2.78;;;;;;;18.32;53.05;101890.38;4972795;28;20010;-72
2022/05/09 08:47:37;;;;;;;4.72;2.80;;;;;;;18.50;52.21;101883.09;4952071;28;20327;-72
2022/05/09 08:50:37;;;;;;;4.00;3.00;;;;;;;18.61;50.43;101878.44;5002979;28;20461;-73
2022/05/09 08:53:07;;;;;;;3.50;2.80;;;;;;;18.71;52.49;101887.16;4997224;28;20791;-73
2022/05/09 08:55:38;;;;;;;5.00;3.10;;;;;;;18.84;52.21;101884.88;4986424;28;20018;-73
2022/05/09 08:58:26;;;;;;;7.63;3.15;;;;;;;19.08;51.61;101888.66;4971106;28;20391;-73
2022/05/09 09:00:52;;;;;;;6.40;2.85;;;;;;;19.29;50.38;101884.66;4967860;28;20387;-72
2022/05/09 09:03:34;;;;;;;4.28;2.60;;;;;;;19.47;49.88;101879.94;4956587;28;20316;-73
2022/05/09 09:06:36;;;;;;;4.28;3.00;;;;;;;19.84;48.82;101880.47;4988733;28;20021;-72
2022/05/09 09:09:37;;;;;;;4.65;2.83;;;;;;;19.89;47.60;101881.63;4990552;28;20058;-72
2022/05/09 09:12:20;;;;;;;3.00;2.50;;;;;;;19.94;47.53;101875.75;5005318;28;20018;-72
2022/05/09 09:15:06;;;;;;;3.35;2.90;;;;;;;20.23;48.61;101879.69;5005546;28;20205;-73
2022/05/09 09:17:50;;;;;;;3.90;2.92;;;;;;;20.53;50.17;101874.53;4941873;28;20943;-72
2022/05/09 09:20:19;;;;;;;4.97;2.60;;;;;;;20.71;50.38;101874.31;4972087;28;20057;-73
2022/05/09 09:23:14;;;;;;;3.00;2.42;;;;;;;20.91;48.66;101872.00;4941698;28;20113;-73
2022/05/09 09:26:20;;;;;;;4.22;2.60;;;;;;;21.28;45.89;101860.50;4950279;28;20517;-72
2022/05/09 09:28:54;;;;;;;2.90;2.70;;;;;;;21.57;45.73;101869.69;4984034;28;20243;-73
2022/05/09 09:31:27;;;;;;;4.93;2.90;;;;;;;21.54;44.76;101872.75;4948808;28;20014;-72
2022/05/09 09:33:58;;;;;;;2.90;2.67;;;;;;;21.76;43.51;101868.34;4950658;28;20111;-73
2022/05/09 09:36:25;;;;;;;3.70;3.00;;;;;;;21.75;44.52;101863.16;4979599;28;20033;-73
2022/05/09 09:39:10;;;;;;;3.30;2.80;;;;;;;21.86;44.01;101865.38;4979284;28;20490;-71
2022/05/09 09:41:36;;;;;;;3.30;3.03;;;;;;;22.04;44.76;101866.88;4997656;28;20017;-73
2022/05/09 09:44:13;;;;;;;4.70;2.85;;;;;;;22.43;46.42;101863.06;4974541;28;20013;-73
2022/05/09 09:47:02;;;;;;;4.00;3.00;;;;;;;22.83;44.01;101852.75;4997345;28;20014;-73
2022/05/09 09:49:27;;;;;;;3.45;2.88;;;;;;;23.15;42.35;101856.84;5004968;28;20373;-73
2022/05/09 09:51:53;;;;;;;2.88;2.60;;;;;;;23.53;42.30;101854.88;5005992;28;20014;-73
2022/05/09 09:54:36;;;;;;;3.50;3.05;;;;;;;23.30;42.27;101856.75;5006416;28;20040;-73
2022/05/09 09:57:22;;;;;;;4.53;2.60;;;;;;;23.93;42.77;101842.50;4999489;28;20222;-73
2022/05/09 09:59:47;;;;;;;3.33;2.58;;;;;;;24.21;40.50;101840.78;4987032;28;20134;-72
2022/05/09 10:02:24;;;;;;;3.08;2.83;;;;;;;24.45;39.44;101839.41;5006409;28;20703;-73
2022/05/09 10:04:50;;;;;;;3.50;2.60;;;;;;;24.48;41.95;101839.00;4970550;28;20021;-73
2022/05/09 10:07:32;;;;;;;2.85;2.60;;;;;;;24.90;40.96;101828.13;4983638;28;20014;-73
2022/05/09 10:10:11;;;;;;;4.07;2.35;;;;;;;25.25;38.24;101820.63;4981582;28;20816;-73
2022/05/09 10:12:44;;;;;;;4.80;2.58;;;;;;;25.23;37.23;101828.16;5023993;28;20021;-73
2022/05/09 10:15:38;;;;;;;4.03;2.60;;;;;;;25.74;36.39;101828.56;4989651;28;20128;-73
2022/05/09 10:18:21;;;;;;;3.08;2.78;;;;;;;26.04;35.28;101826.19;4986510;28;20969;-73
2022/05/09 10:20:48;;;;;;;3.17;2.78;;;;;;;26.20;36.20;101816.75;4978613;28;20014;-74
2022/05/09 10:26:13;;;;;;;2.90;2.40;;;;;;;26.76;36.84;101815.22;4955359;28;20075;-73
2022/05/09 10:28:44;;;;;;;2.80;2.60;;;;;;;26.94;35.17;101811.75;4974949;28;20129;-73
2022/05/09 10:31:14;;;;;;;3.30;2.40;;;;;;;27.06;33.35;101810.00;4975890;28;20018;-73
2022/05/09 10:33:47;;;;;;;4.45;2.70;;;;;;;27.13;34.08;101809.09;4974412;28;20711;-74
2022/05/09 10:36:16;;;;;;;;;;;;;;;27.40;33.57;101810.56;4997118;28;20442;-74
2022/05/09 10:38:44;;;;;;;4.55;2.63;;;;;;;27.36;33.43;101803.09;5019877;28;19911;-74
2022/05/09 10:41:40;;;;;;;2.80;2.50;;;;;;;27.52;32.48;101796.25;4986241;28;20601;-73
2022/05/09 10:44:21;;;;;;;2.45;2.22;;;;;;;28.17;33.36;101798.44;5005601;28;20443;-73
2022/05/09 10:46:50;;;;;;;2.88;2.65;;;;;;;27.97;31.49;101798.66;4959478;28;20011;-73
2022/05/09 10:49:37;;;;;;;2.60;2.40;;;;;;;28.53;31.97;101798.63;4984743;28;20188;-75
2022/05/09 10:52:10;;;;;;;3.38;2.30;;;;;;;28.34;31.91;101793.19;5015111;28;20249;-73
2022/05/09 10:55:02;;;;;;;3.13;2.35;;;;;;;28.16;31.44;101794.09;4986063;28;20563;-73
2022/05/09 10:57:41;;;;;;;2.30;2.20;;;;;;;28.41;30.09;101782.22;5018450;28;20009;-73
2022/05/09 11:00:13;;;;;;;2.63;2.42;;;;;;;27.78;33.05;101781.53;5020209;27;20441;-74
2022/05/09 11:02:41;;;;;;;2.30;2.20;;;;;;;27.46;32.30;101780.84;5005644;28;20009;-73
2022/05/09 11:05:07;;;;;;;3.25;2.92;;;;;;;28.19;32.04;101782.72;5003018;28;20014;-73
2022/05/09 11:07:54;;;;;;;6.22;2.75;;;;;;;27.86;31.92;101780.38;4981506;28;20010;-73
2022/05/09 11:10:28;;;;;;;2.28;1.77;;;;;;;28.56;31.77;101766.28;5001768;28;20018;-73
2022/05/09 11:13:02;;;;;;;;;;;;;;;28.96;30.38;101767.56;5001279;28;20049;-73
2022/05/09 11:16:06;;;;;;;2.30;2.03;;;;;;;29.31;29.51;101768.69;5010107;28;19919;-73
2022/05/09 11:18:56;;;;;;;2.55;2.38;;;;;;;28.18;30.06;101763.91;5009454;28;20026;-73
2022/05/09 11:21:45;;;;;;;3.70;2.42;;;;;;;27.04;32.03;101760.47;5026157;28;20460;-73
2022/05/09 11:24:17;;;;;;;2.63;2.28;;;;;;;26.78;31.82;101757.97;4975730;28;20431;-73
2022/05/09 11:27:02;;;;;;;2.75;2.50;;;;;;;27.41;31.50;101752.44;5010152;28;20021;-73
2022/05/09 11:29:53;;;;;;;2.40;2.20;;;;;;;26.94;32.24;101749.28;5008056;28;20350;-73
2022/05/09 11:32:46;;;;;;;2.13;1.95;;;;;;;26.41;34.11;101750.47;5003610;28;20018;-73
2022/05/09 11:35:15;;;;;;;2.20;2.10;;;;;;;27.92;33.17;101742.22;4964216;28;20048;-73
2022/05/09 11:38:12;;;;;;;2.15;2.08;;;;;;;28.87;31.57;101739.84;4966939;28;20072;-73
2022/05/09 11:40:55;;;;;;;2.35;2.17;;;;;;;29.39;30.16;101739.16;4973994;28;20542;-74
2022/05/09 11:43:46;;;;;;;3.72;2.10;;;;;;;29.67;28.23;101734.00;5001138;28;20018;-73
2022/05/09 11:46:43;;;;;;;2.85;2.00;;;;;;;29.94;26.63;101728.88;4984982;28;20400;-73
2022/05/09 11:49:30;;;;;;;2.28;2.10;;;;;;;30.18;25.73;101728.75;5017865;28;20009;-73
2022/05/09 11:51:57;;;;;;;2.03;1.90;;;;;;;30.49;25.94;101731.00;5006665;28;20081;-74